Texarkana, Arkansas
Current Conditions -  °F | °C
As of 5:53 PM on Friday 21 Nov 2014 (Local Time) from KTXK Reporting Station
Light Rain Light Rain  
Wind Chill: 56°   Ceiling: 4900
Heat Index: 56°   Visibility: 8mi
Dew Point: 55°   Wind: 3mph
Humidity: 97%   Direction: 130°SE
Pressure: 30.19"   Gusts: NA
Location:  33.43°N, 94.03°W
Report Text: KTXK 212353Z 13003KT 8SM -RA OVC049 13/13 A3019 RMK AO2 RAE16B35 SLP221 P0001 60008 T01330128 10144 20133 51012
Loading
Personal Weather Stations






























Interactive Weather Map New forecast layout! Learn more

10-Day Weather Forecast

Advertisements
Track Severe Weather on mobile